Main page
METAR-TAF:

METAR-TAF

Airports :

King Abdulaziz International Airport

Jeddah, Saudi Arabia

latitude: 21-42N, longitude: 039-11E, elevation: 15 m

Current weather observation

The report was made 53 minutes ago, at 08:00 UTC
Wind 2 kt from the Southwest
Temperature 28°C
Humidity 55%
Pressure 1011 hPa
Visibility 10 km or more
Few clouds at a height of 4000 ft

METAR: OEJN 210800Z 23002KT 9999 FEW040 28/18 Q1011 NOSIG

Time: 11:53 (08:53 UTC)

Forecast

The report was made 3 hours and 53 minutes ago, at 05:00 UTC
Forecast valid from 21 at 06 UTC to 22 at 12 UTC
Wind 6 kt from the North/Northwest with gusts up to 16 kt
Visibility 10 km or more
Few clouds at a height of 4000 ft
Becoming
from 21 at 18 UTC to 21 at 20 UTC
Wind 8 kt from the North

TAF: OEJN 210500Z 2106/2212 33006G16KT 9999 FEW040 BECMG 2118/2120 36008KT

Weather observations and forecasts of more than 4000 airports (METAR and TAF reports).

The available stations are represented by yellow and red dots on the map.

Hover mouse over dot to see the name of the station.

Then click to see weather observations and forecasts.

To change the map : click on the green buttons with a black cross to zoom in, on the green button with a dash to zoom out, or on the green arrows for adjacent maps.


METAR-TAF: